createdAt,value
2019-01-22T00:01:12.955Z,-4.42
2019-01-22T00:03:20.375Z,-4.36
2019-01-22T00:05:27.697Z,-4.52
2019-01-22T00:07:35.122Z,-4.49
2019-01-22T00:09:42.589Z,-4.40
2019-01-22T00:11:49.946Z,-4.42
2019-01-22T00:13:57.731Z,-4.46
2019-01-22T00:16:05.187Z,-4.44
2019-01-22T00:18:12.562Z,-4.41
2019-01-22T00:20:20.747Z,-4.46
2019-01-22T00:22:28.079Z,-4.45
2019-01-22T00:24:35.808Z,-4.47
2019-01-22T00:26:43.439Z,-4.46
2019-01-22T00:28:50.894Z,-4.47
2019-01-22T00:30:58.603Z,-4.44
2019-01-22T00:33:06.078Z,-4.43
2019-01-22T00:35:13.454Z,-4.45
2019-01-22T00:37:20.811Z,-4.31
2019-01-22T00:39:28.466Z,-4.24
2019-01-22T00:41:35.851Z,-4.26
2019-01-22T00:43:43.276Z,-4.33
2019-01-22T00:45:50.887Z,-4.21
2019-01-22T00:47:58.029Z,-4.25
2019-01-22T00:50:06.000Z,-4.22
2019-01-22T00:52:13.855Z,-4.28
2019-01-22T00:54:21.273Z,-4.18
2019-01-22T00:56:28.748Z,-4.17
2019-01-22T00:58:36.842Z,-4.32
2019-01-22T01:00:44.215Z,-4.38
2019-01-22T01:02:51.959Z,-4.38
2019-01-22T01:04:59.391Z,-4.34
2019-01-22T01:07:06.694Z,-4.32
2019-01-22T01:09:13.994Z,-4.40
2019-01-22T01:11:21.634Z,-4.41
2019-01-22T01:13:29.143Z,-4.40
2019-01-22T01:15:36.455Z,-4.41
2019-01-22T01:17:44.074Z,-4.48
2019-01-22T01:19:51.348Z,-4.48
2019-01-22T01:21:58.729Z,-4.49
2019-01-22T01:24:06.464Z,-4.50
2019-01-22T01:26:14.321Z,-4.52
2019-01-22T01:28:21.666Z,-4.58
2019-01-22T01:30:29.347Z,-4.62
2019-01-22T01:32:36.789Z,-4.57
2019-01-22T01:34:44.530Z,-4.56
2019-01-22T01:36:52.020Z,-4.63
2019-01-22T01:38:59.304Z,-4.64
2019-01-22T01:41:06.722Z,-4.63
2019-01-22T01:43:14.334Z,-4.60
2019-01-22T01:45:21.814Z,-4.64
2019-01-22T01:47:31.410Z,-4.59
2019-01-22T01:49:39.095Z,-4.64
2019-01-22T01:51:46.519Z,-4.65
2019-01-22T01:53:53.973Z,-4.71
2019-01-22T01:56:01.414Z,-4.75
2019-01-22T01:58:08.802Z,-4.61
2019-01-22T02:00:21.818Z,-4.74
2019-01-22T02:02:29.152Z,-4.71
2019-01-22T02:04:36.363Z,-4.72
2019-01-22T02:06:43.919Z,-4.73
2019-01-22T02:08:51.415Z,-4.79
2019-01-22T02:10:58.840Z,-4.73
2019-01-22T02:13:14.251Z,-4.78
2019-01-22T02:16:00.754Z,-4.80
2019-01-22T02:19:09.728Z,-4.72
2019-01-22T02:22:21.104Z,-4.72
2019-01-22T02:25:16.472Z,-4.69
2019-01-22T02:28:34.463Z,-4.80
2019-01-22T02:31:43.180Z,-4.82
2019-01-22T02:34:28.271Z,-4.76
2019-01-22T02:37:31.931Z,-4.80
2019-01-22T02:40:21.146Z,-4.83
2019-01-22T02:43:42.621Z,-4.80
2019-01-22T02:46:28.318Z,-4.79
2019-01-22T02:49:44.593Z,-4.80
2019-01-22T02:52:39.208Z,-4.81
2019-01-22T02:55:04.512Z,-4.80
2019-01-22T02:58:25.213Z,-4.77
2019-01-22T03:01:16.643Z,-4.76
2019-01-22T03:04:21.116Z,-4.74
2019-01-22T03:07:01.963Z,-4.72
2019-01-22T03:10:12.729Z,-4.74
2019-01-22T03:12:58.292Z,-4.71
2019-01-22T03:16:14.664Z,-4.77
2019-01-22T03:18:57.386Z,-4.77
2019-01-22T03:21:48.335Z,-4.72
2019-01-22T03:25:05.646Z,-4.78
2019-01-22T03:28:15.742Z,-4.82
2019-01-22T03:31:19.829Z,-4.80
2019-01-22T03:33:45.462Z,-4.81
2019-01-22T03:36:39.717Z,-4.83
2019-01-22T03:39:41.040Z,-4.86
2019-01-22T03:42:55.694Z,-4.84
2019-01-22T03:46:10.720Z,-4.85
2019-01-22T03:49:25.671Z,-4.87
2019-01-22T03:51:54.597Z,-4.85
2019-01-22T03:55:12.014Z,-4.85
2019-01-22T03:57:27.175Z,-4.89
2019-01-22T03:59:34.622Z,-4.90
2019-01-22T04:01:42.104Z,-4.87
2019-01-22T04:03:49.598Z,-4.86
2019-01-22T04:06:00.448Z,-4.90
2019-01-22T04:08:08.800Z,-4.91
2019-01-22T04:10:42.445Z,-4.88
2019-01-22T04:12:49.826Z,-4.84
2019-01-22T04:14:57.201Z,-4.86
2019-01-22T04:17:04.615Z,-4.86
2019-01-22T04:19:11.691Z,-4.92
2019-01-22T04:21:21.660Z,-4.90
2019-01-22T04:24:06.485Z,-4.88
2019-01-22T04:27:06.802Z,-4.84
2019-01-22T04:30:08.280Z,-4.85
2019-01-22T04:32:57.938Z,-4.88
2019-01-22T04:36:12.430Z,-4.88
2019-01-22T04:38:55.244Z,-4.89
2019-01-22T04:42:13.314Z,-4.85
2019-01-22T04:45:09.921Z,-4.89
2019-01-22T04:48:13.797Z,-4.87
2019-01-22T04:51:29.320Z,-4.93
2019-01-22T04:54:23.286Z,-4.88
2019-01-22T04:57:07.844Z,-4.86
2019-01-22T05:00:09.525Z,-4.88
2019-01-22T05:03:24.905Z,-4.90
2019-01-22T05:06:33.007Z,-4.94
2019-01-22T05:09:32.538Z,-4.84
2019-01-22T05:12:43.626Z,-4.90
2019-01-22T05:16:33.342Z,-4.88
2019-01-22T05:19:17.994Z,-4.91
2019-01-22T05:22:13.475Z,-4.91
2019-01-22T05:25:34.680Z,-4.92
2019-01-22T05:28:45.137Z,-4.88
2019-01-22T05:31:46.280Z,-4.94
2019-01-22T05:34:44.153Z,-4.93
2019-01-22T05:37:53.806Z,-4.92
2019-01-22T05:41:32.043Z,-4.96
2019-01-22T05:44:11.381Z,-4.89
2019-01-22T05:47:01.939Z,-5.01
2019-01-22T05:49:39.160Z,-4.94
2019-01-22T05:52:17.748Z,-5.00
2019-01-22T05:54:53.763Z,-5.02
2019-01-22T05:57:10.347Z,-5.01
2019-01-22T05:59:52.837Z,-4.94
2019-01-22T06:02:09.666Z,-4.99
2019-01-22T06:05:34.112Z,-5.04
2019-01-22T06:08:24.492Z,-4.96
2019-01-22T06:11:42.866Z,-5.00
2019-01-22T06:14:26.906Z,-5.02
2019-01-22T06:17:19.613Z,-5.00
2019-01-22T06:20:31.018Z,-4.99
2019-01-22T06:23:38.788Z,-4.99
2019-01-22T06:26:12.837Z,-4.99
2019-01-22T06:28:57.245Z,-5.04
2019-01-22T06:31:20.212Z,-4.99
2019-01-22T06:34:31.880Z,-5.03
2019-01-22T06:37:17.716Z,-5.00
2019-01-22T06:39:57.569Z,-5.01
2019-01-22T06:43:35.343Z,-5.02
2019-01-22T06:46:46.821Z,-5.01
2019-01-22T06:49:21.097Z,-4.97
2019-01-22T06:52:17.050Z,-4.97
2019-01-22T06:55:39.764Z,-5.02
2019-01-22T06:58:45.905Z,-5.01
2019-01-22T07:02:05.844Z,-4.97
2019-01-22T07:04:47.448Z,-4.97
2019-01-22T07:08:07.793Z,-5.00
2019-01-22T07:11:11.934Z,-5.01
2019-01-22T07:13:58.978Z,-5.00
2019-01-22T07:17:11.172Z,-5.02
2019-01-22T07:20:05.122Z,-4.94
2019-01-22T07:22:51.663Z,-4.94
2019-01-22T07:26:00.772Z,-4.89
2019-01-22T07:29:11.347Z,-4.93
2019-01-22T07:32:05.709Z,-4.98
2019-01-22T07:35:01.472Z,-4.86
2019-01-22T07:38:19.555Z,-4.80
2019-01-22T07:41:15.138Z,-4.86
2019-01-22T07:44:06.531Z,-4.89
2019-01-22T07:47:14.904Z,-4.83
2019-01-22T07:50:16.894Z,-4.79
2019-01-22T07:52:46.660Z,-4.76
2019-01-22T07:55:58.824Z,-4.71
2019-01-22T07:58:57.173Z,-4.74
2019-01-22T08:02:02.918Z,-4.74
2019-01-22T08:05:26.361Z,-4.72
2019-01-22T08:08:21.040Z,-4.62
2019-01-22T08:10:55.875Z,-4.70
2019-01-22T08:13:56.144Z,-4.72
2019-01-22T08:17:13.762Z,-4.62
2019-01-22T08:20:06.636Z,-4.52
2019-01-22T08:23:21.168Z,-4.51
2019-01-22T08:26:09.573Z,-4.43
2019-01-22T08:28:35.327Z,-4.39
2019-01-22T08:31:46.173Z,-4.51
2019-01-22T08:34:48.169Z,-4.50
2019-01-22T08:37:50.053Z,-4.38
2019-01-22T08:40:44.355Z,-4.30
2019-01-22T08:43:41.322Z,-4.27
2019-01-22T08:46:55.649Z,-4.28
2019-01-22T08:50:17.724Z,-4.20
2019-01-22T08:53:18.239Z,-4.18
2019-01-22T08:56:33.379Z,-4.07
2019-01-22T08:59:42.731Z,-3.93
2019-01-22T09:02:38.216Z,-3.98
2019-01-22T09:05:27.652Z,-3.96
2019-01-22T09:08:37.802Z,-3.98
2019-01-22T09:12:11.809Z,-4.07
2019-01-22T09:15:11.794Z,-4.07
2019-01-22T09:18:10.879Z,-3.99
2019-01-22T09:21:01.605Z,-3.92
2019-01-22T09:24:23.381Z,-3.86
2019-01-22T09:27:48.975Z,-3.83
2019-01-22T09:30:41.004Z,-3.80
2019-01-22T09:33:17.294Z,-3.80
2019-01-22T09:36:13.153Z,-3.73
2019-01-22T09:38:20.726Z,-3.72
2019-01-22T09:40:28.193Z,-3.74
2019-01-22T09:42:35.693Z,-3.70
2019-01-22T09:44:43.114Z,-3.62
2019-01-22T09:46:50.774Z,-3.55
2019-01-22T09:48:58.224Z,-3.59
2019-01-22T09:51:05.634Z,-3.48
2019-01-22T09:53:13.471Z,-3.46
2019-01-22T09:55:22.593Z,-3.36
2019-01-22T09:57:30.038Z,-3.37
2019-01-22T09:59:37.485Z,-3.31
2019-01-22T10:01:45.039Z,-3.39
2019-01-22T10:03:52.441Z,-3.32
2019-01-22T10:05:59.937Z,-3.19
2019-01-22T10:08:07.400Z,-3.18
2019-01-22T10:10:17.957Z,-3.13
2019-01-22T10:12:25.782Z,-3.05
2019-01-22T10:14:33.337Z,-2.99
2019-01-22T10:16:40.767Z,-3.02
2019-01-22T10:18:48.744Z,-3.09
2019-01-22T10:20:56.291Z,-2.95
2019-01-22T10:23:03.685Z,-2.92
2019-01-22T10:25:11.519Z,-2.94
2019-01-22T10:27:19.017Z,-2.89
2019-01-22T10:29:26.345Z,-2.76
2019-01-22T10:31:33.676Z,-2.70
2019-01-22T10:33:41.066Z,-2.61
2019-01-22T10:35:48.561Z,-2.71
2019-01-22T10:37:55.883Z,-2.65
2019-01-22T10:40:04.078Z,-2.56
2019-01-22T10:42:11.570Z,-2.69
2019-01-22T10:44:19.183Z,-2.46
2019-01-22T10:46:26.525Z,-2.41
2019-01-22T10:48:33.891Z,-2.39
2019-01-22T10:50:41.306Z,-2.51
2019-01-22T10:52:48.805Z,-2.61
2019-01-22T10:54:56.214Z,-2.49
2019-01-22T10:57:03.722Z,-2.39
2019-01-22T10:59:11.034Z,-2.37
2019-01-22T11:01:18.538Z,-2.35
2019-01-22T11:03:26.119Z,-2.19
2019-01-22T11:05:41.808Z,-2.29
2019-01-22T11:07:49.254Z,-2.01
2019-01-22T11:09:56.677Z,-2.23
2019-01-22T11:12:04.074Z,-2.20
2019-01-22T11:14:11.549Z,-2.09
2019-01-22T11:16:18.984Z,-1.92
2019-01-22T11:18:26.417Z,-1.79
2019-01-22T11:20:33.854Z,-1.91
2019-01-22T11:22:41.294Z,-1.76
2019-01-22T11:24:52.741Z,-1.92
2019-01-22T11:26:57.951Z,-1.85
2019-01-22T11:29:05.404Z,-1.76
2019-01-22T11:31:12.884Z,-1.82
2019-01-22T11:33:20.279Z,-1.64
2019-01-22T11:35:27.474Z,-1.73
2019-01-22T11:37:34.983Z,-1.66
2019-01-22T11:39:42.205Z,-1.84
2019-01-22T11:41:49.982Z,-1.82
2019-01-22T11:43:57.292Z,-1.80
2019-01-22T11:46:04.770Z,-1.73
2019-01-22T11:48:13.588Z,-1.86
2019-01-22T11:50:21.824Z,-1.98
2019-01-22T11:52:29.309Z,-2.05
2019-01-22T11:54:36.839Z,-2.19
2019-01-22T11:56:44.243Z,-2.19
2019-01-22T11:58:51.651Z,-2.14
2019-01-22T12:01:02.566Z,-2.21
2019-01-22T12:03:10.092Z,-2.25
2019-01-22T12:05:17.483Z,-2.27
2019-01-22T12:07:24.879Z,-2.17
2019-01-22T12:09:32.238Z,-2.15
2019-01-22T12:11:39.575Z,-2.19
2019-01-22T12:13:53.854Z,-2.12
2019-01-22T12:15:56.172Z,-2.14
2019-01-22T12:18:03.546Z,-2.28
2019-01-22T12:20:17.384Z,-2.27
2019-01-22T12:22:25.113Z,-2.41
2019-01-22T12:24:32.454Z,-2.35
2019-01-22T12:26:40.108Z,-2.35
2019-01-22T12:28:47.539Z,-2.33
2019-01-22T12:30:54.809Z,-2.36
2019-01-22T12:33:02.609Z,-2.34
2019-01-22T12:35:10.973Z,-2.39
2019-01-22T12:37:18.779Z,-2.36
2019-01-22T12:39:26.189Z,-2.39
2019-01-22T12:41:33.588Z,-2.38
2019-01-22T12:43:41.434Z,-2.31
2019-01-22T12:45:49.065Z,-2.25
2019-01-22T12:47:56.342Z,-2.12
2019-01-22T12:50:03.805Z,-1.95
2019-01-22T12:52:11.469Z,-2.02
2019-01-22T12:54:18.925Z,-1.96
2019-01-22T12:56:26.561Z,-1.89
2019-01-22T12:58:33.942Z,-1.67
2019-01-22T13:00:41.270Z,-1.59
2019-01-22T13:02:48.592Z,-1.75
2019-01-22T13:04:56.109Z,-1.79
2019-01-22T13:07:03.547Z,-1.68
2019-01-22T13:09:11.011Z,-1.74
2019-01-22T13:11:18.425Z,-1.80
2019-01-22T13:13:26.028Z,-1.72
2019-01-22T13:15:33.436Z,-1.76
2019-01-22T13:17:40.901Z,-1.74
2019-01-22T13:19:48.353Z,-1.72
2019-01-22T13:21:55.702Z,-1.82
2019-01-22T13:24:03.279Z,-1.70
2019-01-22T13:26:11.635Z,-1.84
2019-01-22T13:28:19.301Z,-1.82
2019-01-22T13:30:26.836Z,-1.86
2019-01-22T13:32:34.581Z,-1.85
2019-01-22T13:34:42.037Z,-1.77
2019-01-22T13:36:49.461Z,-1.74
2019-01-22T13:38:56.733Z,-1.77
2019-01-22T13:41:04.030Z,-1.71
2019-01-22T13:43:12.262Z,-1.68
2019-01-22T13:45:23.085Z,-1.69
2019-01-22T13:47:30.784Z,-1.73
2019-01-22T13:49:38.282Z,-1.68
2019-01-22T13:51:45.698Z,-1.68
2019-01-22T13:53:54.360Z,-1.69
2019-01-22T13:56:02.246Z,-1.71
2019-01-22T13:58:09.640Z,-1.72
2019-01-22T14:00:19.775Z,-1.77
2019-01-22T14:02:27.156Z,-1.80
2019-01-22T14:04:34.828Z,-1.90
2019-01-22T14:06:42.367Z,-1.91
2019-01-22T14:08:49.834Z,-1.97
2019-01-22T14:10:57.330Z,-1.99
2019-01-22T14:13:04.721Z,-2.01
2019-01-22T14:15:19.518Z,-2.07
2019-01-22T14:17:26.909Z,-2.11
2019-01-22T14:19:34.382Z,-2.14
2019-01-22T14:21:41.863Z,-2.19
2019-01-22T14:23:49.245Z,-2.28
2019-01-22T14:25:56.798Z,-2.23
2019-01-22T14:28:04.137Z,-2.27
2019-01-22T14:30:21.831Z,-2.31
2019-01-22T14:32:29.579Z,-2.28
2019-01-22T14:34:37.183Z,-2.37
2019-01-22T14:36:44.710Z,-2.37
2019-01-22T14:38:52.137Z,-2.39
2019-01-22T14:40:59.990Z,-2.42
2019-01-22T14:43:07.488Z,-2.49
2019-01-22T14:45:15.712Z,-2.56
2019-01-22T14:47:23.589Z,-2.54
2019-01-22T14:49:31.183Z,-2.57
2019-01-22T14:51:38.655Z,-2.56
2019-01-22T14:53:46.248Z,-2.55
2019-01-22T14:55:54.030Z,-2.58
2019-01-22T14:58:01.284Z,-2.63
2019-01-22T15:00:22.615Z,-2.61
2019-01-22T15:02:30.380Z,-2.61
2019-01-22T15:04:37.781Z,-2.68
2019-01-22T15:06:45.490Z,-2.72
2019-01-22T15:08:53.589Z,-2.68
2019-01-22T15:11:01.901Z,-2.73
2019-01-22T15:13:09.699Z,-2.75
2019-01-22T15:15:18.719Z,-2.77
2019-01-22T15:17:26.677Z,-2.78
2019-01-22T15:19:34.158Z,-2.80
2019-01-22T15:21:41.742Z,-2.87
2019-01-22T15:23:49.195Z,-2.87
2019-01-22T15:25:56.931Z,-2.87
2019-01-22T15:28:04.395Z,-2.98
2019-01-22T15:30:16.066Z,-2.95
2019-01-22T15:32:23.615Z,-2.97
2019-01-22T15:34:31.096Z,-3.00
2019-01-22T15:36:39.181Z,-3.01
2019-01-22T15:38:47.342Z,-3.07
2019-01-22T15:40:55.091Z,-3.02
2019-01-22T15:43:02.641Z,-3.06
2019-01-22T15:45:10.200Z,-3.12
2019-01-22T15:47:17.647Z,-3.17
2019-01-22T15:49:25.579Z,-3.21
2019-01-22T15:51:33.190Z,-3.19
2019-01-22T15:53:40.823Z,-3.22
2019-01-22T15:55:48.408Z,-3.23
2019-01-22T15:57:56.242Z,-3.21
2019-01-22T16:00:03.768Z,-3.25
2019-01-22T16:02:11.252Z,-3.33
2019-01-22T16:04:18.718Z,-3.40
2019-01-22T16:06:26.275Z,-3.36
2019-01-22T16:08:33.757Z,-3.36
2019-01-22T16:10:41.218Z,-3.43
2019-01-22T16:12:48.854Z,-3.42
2019-01-22T16:14:56.821Z,-3.45
2019-01-22T16:17:04.316Z,-3.47
2019-01-22T16:19:11.740Z,-3.54
2019-01-22T16:21:19.261Z,-3.59
2019-01-22T16:23:26.939Z,-3.58
2019-01-22T16:25:34.912Z,-3.54
2019-01-22T16:27:42.622Z,-3.58
2019-01-22T16:29:50.103Z,-3.73
2019-01-22T16:31:57.692Z,-3.66
2019-01-22T16:34:05.135Z,-3.60
2019-01-22T16:36:12.676Z,-3.63
2019-01-22T16:38:20.097Z,-3.64
2019-01-22T16:40:27.440Z,-3.74
2019-01-22T16:42:34.874Z,-3.73
2019-01-22T16:44:42.658Z,-3.73
2019-01-22T16:46:50.293Z,-3.81
2019-01-22T16:48:58.124Z,-3.79
2019-01-22T16:51:05.836Z,-3.78
2019-01-22T16:53:21.884Z,-3.79
2019-01-22T16:55:35.101Z,-3.84
2019-01-22T16:57:42.797Z,-3.84
2019-01-22T16:59:49.989Z,-3.88
2019-01-22T17:01:57.143Z,-3.96
2019-01-22T17:04:04.264Z,-3.97
2019-01-22T17:06:11.660Z,-3.98
2019-01-22T17:08:19.212Z,-4.00
2019-01-22T17:10:26.389Z,-4.12
2019-01-22T17:12:33.478Z,-4.07
2019-01-22T17:14:41.307Z,-4.07
2019-01-22T17:16:48.431Z,-4.09
2019-01-22T17:18:55.872Z,-4.10
2019-01-22T17:21:03.079Z,-4.08
2019-01-22T17:23:16.332Z,-4.20
2019-01-22T17:25:19.196Z,-4.15
2019-01-22T17:27:26.897Z,-4.23
2019-01-22T17:29:34.833Z,-4.26
2019-01-22T17:32:04.564Z,-4.28
2019-01-22T17:34:09.992Z,-4.29
2019-01-22T17:36:17.422Z,-4.35
2019-01-22T17:38:25.630Z,-4.34
2019-01-22T17:40:33.324Z,-4.40
2019-01-22T17:42:41.054Z,-4.34
2019-01-22T17:44:48.720Z,-4.46
2019-01-22T17:46:56.714Z,-4.45
2019-01-22T17:49:04.214Z,-4.47
2019-01-22T17:51:11.415Z,-4.51
2019-01-22T17:53:19.277Z,-4.51
2019-01-22T17:55:26.764Z,-4.50
2019-01-22T17:57:34.319Z,-4.59
2019-01-22T17:59:42.019Z,-4.65
2019-01-22T18:01:49.486Z,-4.62
2019-01-22T18:03:57.007Z,-4.64
2019-01-22T18:06:04.806Z,-4.63
2019-01-22T18:08:12.219Z,-4.65
2019-01-22T18:10:19.831Z,-4.59
2019-01-22T18:12:27.619Z,-4.67
2019-01-22T18:14:35.056Z,-4.68
2019-01-22T18:16:42.695Z,-4.69
2019-01-22T18:18:50.077Z,-4.69
2019-01-22T18:20:57.534Z,-4.74
2019-01-22T18:23:05.234Z,-4.75
2019-01-22T18:25:12.716Z,-4.85
2019-01-22T18:27:20.773Z,-4.84
2019-01-22T18:29:28.548Z,-4.79
2019-01-22T18:31:35.861Z,-4.84
2019-01-22T18:33:43.336Z,-4.87
2019-01-22T18:35:50.686Z,-4.82
2019-01-22T18:37:58.119Z,-4.87
2019-01-22T18:40:05.918Z,-4.92
2019-01-22T18:42:13.355Z,-4.94
2019-01-22T18:44:20.766Z,-4.94
2019-01-22T18:46:28.371Z,-5.13
2019-01-22T18:48:35.713Z,-5.10
2019-01-22T18:50:43.487Z,-5.11
2019-01-22T18:52:51.075Z,-5.10
2019-01-22T18:54:59.564Z,-5.22
2019-01-22T18:57:07.299Z,-5.19
2019-01-22T18:59:14.932Z,-5.31
2019-01-22T19:01:22.638Z,-5.31
2019-01-22T19:03:30.610Z,-5.34
2019-01-22T19:05:38.062Z,-5.37
2019-01-22T19:07:45.705Z,-5.41
2019-01-22T19:09:53.364Z,-5.41
2019-01-22T19:12:01.021Z,-5.39
2019-01-22T19:14:08.533Z,-5.41
2019-01-22T19:16:15.904Z,-5.44
2019-01-22T19:18:23.403Z,-5.40
2019-01-22T19:20:30.989Z,-5.39
2019-01-22T19:22:38.694Z,-5.32
2019-01-22T19:24:46.160Z,-5.31
2019-01-22T19:26:53.616Z,-5.27
2019-01-22T19:29:01.208Z,-5.21
2019-01-22T19:31:09.340Z,-5.15
2019-01-22T19:33:16.821Z,-5.06
2019-01-22T19:35:24.271Z,-5.01
2019-01-22T19:37:31.907Z,-4.94
2019-01-22T19:39:40.933Z,-4.93
2019-01-22T19:41:48.742Z,-4.97
2019-01-22T19:43:56.039Z,-4.92
2019-01-22T19:46:03.610Z,-4.89
2019-01-22T19:48:11.269Z,-4.87
2019-01-22T19:50:19.429Z,-4.87
2019-01-22T19:52:26.964Z,-4.92
2019-01-22T19:54:34.439Z,-4.82
2019-01-22T19:56:42.214Z,-4.91
2019-01-22T19:58:49.929Z,-4.84
2019-01-22T20:00:58.332Z,-4.78
2019-01-22T20:03:06.577Z,-4.88
2019-01-22T20:05:14.068Z,-4.85
2019-01-22T20:07:21.883Z,-4.90
2019-01-22T20:09:29.736Z,-4.90
2019-01-22T20:11:37.659Z,-4.90
2019-01-22T20:13:45.215Z,-4.87
2019-01-22T20:15:52.776Z,-4.94
2019-01-22T20:18:00.059Z,-4.81
2019-01-22T20:20:11.407Z,-4.88
2019-01-22T20:22:18.861Z,-4.91
2019-01-22T20:24:26.217Z,-4.99
2019-01-22T20:26:35.532Z,-4.98
2019-01-22T20:28:47.082Z,-5.01
2019-01-22T20:30:54.613Z,-4.91
2019-01-22T20:33:02.757Z,-5.03
2019-01-22T20:35:10.200Z,-5.04
2019-01-22T20:37:17.822Z,-5.01
2019-01-22T20:39:25.416Z,-5.04
2019-01-22T20:41:32.965Z,-5.09
2019-01-22T20:43:40.438Z,-5.16
2019-01-22T20:45:48.158Z,-5.13
2019-01-22T20:47:55.871Z,-5.18
2019-01-22T20:50:03.577Z,-5.21
2019-01-22T20:52:11.111Z,-5.33
2019-01-22T20:54:18.539Z,-5.40
2019-01-22T20:56:25.770Z,-5.40
2019-01-22T20:58:40.396Z,-5.40
2019-01-22T21:00:43.509Z,-5.42
2019-01-22T21:02:51.544Z,-5.37
2019-01-22T21:04:59.938Z,-5.35
2019-01-22T21:07:07.503Z,-5.50
2019-01-22T21:09:15.284Z,-5.47
2019-01-22T21:11:23.707Z,-5.46
2019-01-22T21:13:31.524Z,-5.37
2019-01-22T21:15:38.997Z,-5.47
2019-01-22T21:17:46.462Z,-5.51
2019-01-22T21:19:54.176Z,-5.48
2019-01-22T21:22:01.830Z,-5.51
2019-01-22T21:24:09.776Z,-5.55
2019-01-22T21:26:22.157Z,-5.53
2019-01-22T21:28:29.679Z,-5.52
2019-01-22T21:30:38.642Z,-5.50
2019-01-22T21:32:46.154Z,-5.43
2019-01-22T21:34:53.626Z,-5.53
2019-01-22T21:37:01.681Z,-5.55
2019-01-22T21:39:10.073Z,-5.51
2019-01-22T21:41:17.500Z,-5.46
2019-01-22T21:43:25.547Z,-5.46
2019-01-22T21:45:33.100Z,-5.60
2019-01-22T21:47:40.583Z,-5.58
2019-01-22T21:49:48.411Z,-5.63
2019-01-22T21:51:55.763Z,-5.65
2019-01-22T21:54:03.550Z,-5.62
2019-01-22T21:56:11.143Z,-5.64
2019-01-22T21:58:18.889Z,-5.61
2019-01-22T22:00:27.827Z,-5.55
2019-01-22T22:02:35.416Z,-5.50
2019-01-22T22:04:42.931Z,-5.35
2019-01-22T22:06:50.381Z,-5.39
2019-01-22T22:08:57.871Z,-5.41
2019-01-22T22:11:05.206Z,-5.58
2019-01-22T22:13:12.865Z,-5.52
2019-01-22T22:15:22.547Z,-5.45
2019-01-22T22:17:29.942Z,-5.51
2019-01-22T22:19:37.530Z,-5.45
2019-01-22T22:21:45.354Z,-5.54
2019-01-22T22:23:52.849Z,-5.55
2019-01-22T22:26:00.037Z,-5.54
2019-01-22T22:28:07.539Z,-5.72
2019-01-22T22:30:27.431Z,-5.77
2019-01-22T22:32:35.986Z,-5.70
2019-01-22T22:34:43.746Z,-5.73
2019-01-22T22:36:51.195Z,-5.75
2019-01-22T22:38:58.563Z,-5.81
2019-01-22T22:41:06.502Z,-5.71
2019-01-22T22:43:14.656Z,-5.59
2019-01-22T22:45:24.172Z,-5.52
2019-01-22T22:47:31.962Z,-5.50
2019-01-22T22:49:39.675Z,-5.34
2019-01-22T22:51:47.023Z,-5.32
2019-01-22T22:53:54.860Z,-5.30
2019-01-22T22:56:02.347Z,-5.22
2019-01-22T22:58:09.713Z,-5.27
2019-01-22T23:00:53.033Z,-5.24
2019-01-22T23:03:00.855Z,-5.28
2019-01-22T23:05:08.342Z,-5.24
2019-01-22T23:07:15.853Z,-5.29
2019-01-22T23:09:23.333Z,-5.20
2019-01-22T23:11:30.775Z,-5.26
2019-01-22T23:13:38.024Z,-5.23
2019-01-22T23:15:45.548Z,-5.23
2019-01-22T23:17:53.075Z,-5.26
2019-01-22T23:20:00.525Z,-5.38
2019-01-22T23:22:07.995Z,-5.41
2019-01-22T23:24:15.296Z,-5.41
2019-01-22T23:26:22.562Z,-5.50
2019-01-22T23:28:30.050Z,-5.54
2019-01-22T23:30:37.433Z,-5.57
2019-01-22T23:32:44.957Z,-5.55
2019-01-22T23:34:52.186Z,-5.55
2019-01-22T23:36:59.683Z,-5.56
2019-01-22T23:39:07.386Z,-5.62
2019-01-22T23:41:14.765Z,-5.63
2019-01-22T23:43:21.738Z,-5.64
2019-01-22T23:45:29.175Z,-5.58
2019-01-22T23:47:36.649Z,-5.60
2019-01-22T23:49:44.076Z,-5.58
2019-01-22T23:51:52.731Z,-5.59
2019-01-22T23:54:00.078Z,-5.66
2019-01-22T23:56:07.459Z,-5.59
2019-01-22T23:58:15.252Z,-5.65
